createdAt,value
2023-03-27T00:00:24.406Z,239.37
2023-03-27T00:04:24.787Z,249.97
2023-03-27T00:08:24.823Z,248.07
2023-03-27T00:12:25.303Z,250.00
2023-03-27T00:16:25.174Z,218.13
2023-03-27T00:20:25.500Z,239.15
2023-03-27T00:24:25.955Z,136.35
2023-03-27T00:28:25.749Z,130.64
2023-03-27T00:32:26.324Z,110.85
2023-03-27T00:36:26.259Z,106.03
2023-03-27T00:40:26.330Z,85.23
2023-03-27T00:44:26.883Z,118.69
2023-03-27T00:48:26.842Z,214.39
2023-03-27T00:52:26.741Z,252.66
2023-03-27T00:56:27.418Z,240.60
2023-03-27T01:00:27.124Z,227.76
2023-03-27T01:04:27.434Z,203.98
2023-03-27T01:08:27.054Z,205.82
2023-03-27T01:12:26.982Z,196.34
2023-03-27T01:16:27.406Z,192.33
2023-03-27T01:20:26.974Z,159.75
2023-03-27T01:24:27.360Z,145.75
2023-03-27T01:28:27.323Z,122.76
2023-03-27T01:32:26.959Z,151.56
2023-03-27T01:36:26.860Z,159.62
2023-03-27T01:40:27.087Z,141.67
2023-03-27T01:44:27.404Z,170.98
2023-03-27T01:48:28.151Z,121.72
2023-03-27T01:52:27.321Z,100.96
2023-03-27T01:56:27.285Z,95.29
2023-03-27T02:00:27.307Z,107.02
2023-03-27T02:04:28.288Z,117.35
2023-03-27T02:08:27.349Z,153.42
2023-03-27T02:12:27.222Z,132.57
2023-03-27T02:16:27.195Z,150.33
2023-03-27T02:20:27.349Z,138.84
2023-03-27T02:24:27.086Z,133.28
2023-03-27T02:28:27.086Z,140.40
2023-03-27T02:32:27.124Z,123.89
2023-03-27T02:36:27.009Z,128.61
2023-03-27T02:40:27.195Z,114.41
2023-03-27T02:44:27.434Z,104.04
2023-03-27T02:48:26.958Z,123.62
2023-03-27T02:52:26.937Z,137.59
2023-03-27T02:56:27.160Z,78.05
2023-03-27T03:00:26.977Z,8.94
2023-03-27T03:04:26.921Z,42.21
2023-03-27T03:08:27.089Z,32.80
2023-03-27T03:12:27.911Z,82.77
2023-03-27T03:16:27.002Z,92.72
2023-03-27T03:20:26.926Z,93.78
2023-03-27T03:24:26.734Z,26.94
2023-03-27T03:28:26.671Z,42.17
2023-03-27T03:32:26.915Z,58.73
2023-03-27T03:36:26.840Z,64.42
2023-03-27T03:40:26.867Z,88.26
2023-03-27T03:44:26.462Z,78.16
2023-03-27T03:48:26.882Z,24.61
2023-03-27T03:52:26.837Z,24.98
2023-03-27T03:56:26.951Z,16.03
2023-03-27T04:00:26.908Z,0.00
2023-03-27T04:04:26.467Z,20.62
2023-03-27T04:08:26.926Z,36.03
2023-03-27T04:12:26.878Z,57.81
2023-03-27T04:16:26.725Z,83.39
2023-03-27T04:20:26.772Z,69.86
2023-03-27T04:24:26.845Z,62.23
2023-03-27T04:28:26.810Z,42.87
2023-03-27T04:32:26.938Z,36.24
2023-03-27T04:36:28.483Z,48.91
2023-03-27T04:40:26.975Z,30.59
2023-03-27T04:44:27.394Z,35.37
2023-03-27T04:48:26.927Z,35.05
2023-03-27T04:52:26.861Z,39.21
2023-03-27T04:56:26.834Z,64.91
2023-03-27T05:00:26.862Z,91.53
2023-03-27T05:04:26.818Z,113.77
2023-03-27T05:08:26.721Z,115.91
2023-03-27T05:12:26.686Z,109.98
2023-03-27T05:16:26.663Z,137.68
2023-03-27T05:20:26.706Z,144.35
2023-03-27T05:24:26.761Z,126.72
2023-03-27T05:28:26.637Z,160.27
2023-03-27T05:32:26.912Z,146.38
2023-03-27T05:45:06.270Z,25.00
2023-03-27T05:49:06.519Z,38.01
2023-03-27T05:53:06.548Z,198.30
2023-03-27T05:57:06.217Z,204.54
2023-03-27T06:01:06.552Z,223.45
2023-03-27T06:05:06.519Z,145.73
2023-03-27T06:09:06.098Z,172.09
2023-03-27T06:13:06.550Z,205.15
2023-03-27T06:17:06.013Z,75.28
2023-03-27T06:21:06.011Z,139.64
2023-03-27T06:25:06.059Z,132.78
2023-03-27T06:29:08.162Z,181.22
2023-03-27T06:33:06.569Z,118.03
2023-03-27T06:37:06.046Z,183.19
2023-03-27T06:41:06.020Z,219.14
2023-03-27T06:45:06.109Z,161.67
2023-03-27T06:49:06.056Z,176.29
2023-03-27T06:53:09.988Z,500.00
2023-03-27T06:57:06.896Z,143.19
2023-03-27T07:01:06.036Z,45.40
2023-03-27T07:05:05.803Z,28.67
2023-03-27T07:09:06.166Z,25.00
2023-03-27T07:13:05.972Z,89.54
2023-03-27T07:17:08.099Z,68.97
2023-03-27T07:21:06.190Z,31.47
2023-03-27T07:25:05.853Z,70.82
2023-03-27T07:29:06.127Z,56.58
2023-03-27T07:33:06.656Z,90.27
2023-03-27T07:37:06.045Z,102.31
2023-03-27T07:41:06.120Z,88.58
2023-03-27T07:45:06.124Z,83.39
2023-03-27T07:49:05.736Z,35.76
2023-03-27T07:53:05.609Z,28.01
2023-03-27T07:57:06.237Z,74.64
2023-03-27T08:01:05.527Z,142.85
2023-03-27T08:05:05.802Z,166.50
2023-03-27T08:09:05.481Z,114.42
2023-03-27T08:13:05.525Z,132.25
2023-03-27T08:17:15.145Z,85.22
2023-03-27T08:21:06.397Z,65.26
2023-03-27T08:25:05.321Z,139.38
2023-03-27T08:29:05.275Z,126.05
2023-03-27T08:33:05.328Z,100.24
2023-03-27T08:37:05.424Z,145.74
2023-03-27T08:41:05.447Z,41.64
2023-03-27T08:45:05.513Z,131.67
2023-03-27T08:49:05.647Z,119.37
2023-03-27T08:53:05.769Z,187.29
2023-03-27T08:57:05.951Z,101.51
2023-03-27T09:01:05.978Z,116.43
2023-03-27T09:05:06.111Z,107.78
2023-03-27T09:09:06.286Z,105.06
2023-03-27T09:13:06.589Z,134.21
2023-03-27T09:17:06.661Z,198.35
2023-03-27T09:21:06.535Z,169.56
2023-03-27T09:25:06.706Z,213.17
2023-03-27T09:29:06.639Z,117.33
2023-03-27T09:33:06.798Z,37.27
2023-03-27T09:37:06.750Z,70.86
2023-03-27T09:41:06.775Z,15.35
2023-03-27T09:45:06.900Z,105.09
2023-03-27T09:49:06.825Z,90.44
2023-03-27T09:53:06.792Z,67.44
2023-03-27T09:57:06.826Z,67.21
2023-03-27T10:01:06.744Z,37.94
2023-03-27T10:05:06.700Z,140.88
2023-03-27T10:09:06.676Z,124.58
2023-03-27T10:13:07.098Z,146.02
2023-03-27T10:17:07.080Z,45.21
2023-03-27T10:21:06.553Z,7.88
2023-03-27T10:25:06.604Z,78.92
2023-03-27T10:29:06.496Z,82.11
2023-03-27T10:33:07.128Z,0.00
2023-03-27T10:37:07.071Z,84.01
2023-03-27T10:41:07.047Z,71.25
2023-03-27T10:45:07.560Z,23.93
2023-03-27T10:49:07.578Z,52.95
2023-03-27T10:53:07.647Z,169.79
2023-03-27T10:57:07.632Z,250.00
2023-03-27T11:01:07.594Z,237.30
2023-03-27T11:05:07.696Z,237.71
2023-03-27T11:09:07.692Z,192.07
2023-03-27T11:13:08.065Z,181.27
2023-03-27T11:17:08.195Z,192.85
2023-03-27T11:21:07.877Z,204.94
2023-03-27T11:25:08.093Z,194.48
2023-03-27T11:29:08.164Z,227.56
2023-03-27T11:33:08.674Z,243.91
2023-03-27T11:37:08.326Z,222.86
2023-03-27T11:41:08.680Z,227.63
2023-03-27T11:45:09.112Z,186.71
2023-03-27T11:49:09.047Z,189.80
2023-03-27T11:53:09.070Z,175.04
2023-03-27T11:57:08.706Z,177.80
2023-03-27T12:01:08.567Z,173.40
2023-03-27T12:05:08.579Z,182.74
2023-03-27T12:09:08.450Z,199.73
2023-03-27T12:13:08.589Z,190.07
2023-03-27T12:17:08.403Z,141.18
2023-03-27T12:21:09.109Z,119.67
2023-03-27T12:25:09.119Z,122.87
2023-03-27T12:29:23.374Z,135.64
2023-03-27T12:33:09.777Z,136.74
2023-03-27T12:37:08.669Z,82.03
2023-03-27T12:41:09.077Z,9.99
2023-03-27T12:45:09.136Z,80.15
2023-03-27T12:49:09.646Z,147.36
2023-03-27T12:53:09.341Z,147.27
2023-03-27T12:57:09.749Z,159.67
2023-03-27T13:01:19.610Z,162.90
2023-03-27T13:05:24.091Z,154.36
2023-03-27T13:09:10.612Z,161.61
2023-03-27T13:13:09.185Z,163.44
2023-03-27T13:17:09.623Z,157.43
2023-03-27T13:21:09.136Z,175.38
2023-03-27T13:25:09.618Z,168.44
2023-03-27T13:29:09.643Z,49.04
2023-03-27T13:33:09.492Z,21.60
2023-03-27T13:37:09.682Z,96.44
2023-03-27T13:41:09.827Z,128.52
2023-03-27T13:45:10.104Z,155.55
2023-03-27T13:49:09.931Z,0.00
2023-03-27T13:53:10.140Z,5.22
2023-03-27T13:57:10.182Z,111.12
2023-03-27T14:01:10.621Z,85.74
2023-03-27T14:05:10.255Z,51.87
2023-03-27T14:09:10.189Z,55.68
2023-03-27T14:13:11.092Z,49.62
2023-03-27T14:17:10.116Z,24.63
2023-03-27T14:21:10.114Z,15.14
2023-03-27T14:25:10.125Z,19.68
2023-03-27T14:29:10.010Z,56.81
2023-03-27T14:33:10.199Z,93.04
2023-03-27T14:37:10.162Z,52.88
2023-03-27T14:41:09.980Z,49.41
2023-03-27T14:45:10.609Z,56.06
2023-03-27T14:49:10.344Z,135.05
2023-03-27T14:53:10.634Z,121.04
2023-03-27T14:57:10.694Z,170.05
2023-03-27T15:01:10.594Z,156.50
2023-03-27T15:05:10.828Z,151.75
2023-03-27T15:09:11.109Z,144.68
2023-03-27T15:13:11.238Z,155.14
2023-03-27T15:17:11.144Z,150.21
2023-03-27T15:21:10.688Z,160.17
2023-03-27T15:25:10.649Z,162.37
2023-03-27T15:29:10.622Z,161.31
2023-03-27T15:33:10.653Z,161.96
2023-03-27T15:37:10.637Z,167.35
2023-03-27T15:41:10.496Z,158.07
2023-03-27T15:45:10.482Z,157.72
2023-03-27T15:49:10.422Z,163.22
2023-03-27T15:53:10.677Z,172.20
2023-03-27T15:57:11.720Z,163.83
2023-03-27T16:01:18.065Z,167.41
2023-03-27T16:05:11.275Z,174.37
2023-03-27T16:09:10.668Z,159.05
2023-03-27T16:13:10.602Z,135.78
2023-03-27T16:17:11.150Z,82.87
2023-03-27T16:21:10.996Z,97.22
2023-03-27T16:25:12.761Z,98.40
2023-03-27T16:29:11.241Z,143.71
2023-03-27T16:33:12.339Z,128.89
2023-03-27T16:37:11.682Z,131.95
2023-03-27T16:41:11.342Z,145.94
2023-03-27T16:45:11.661Z,79.27
2023-03-27T16:49:11.544Z,120.58
2023-03-27T16:53:11.654Z,83.04
2023-03-27T16:57:11.702Z,142.36
2023-03-27T17:01:11.843Z,151.81
2023-03-27T17:05:12.233Z,130.86
2023-03-27T17:09:12.139Z,154.66
2023-03-27T17:13:11.698Z,125.94
2023-03-27T17:17:12.175Z,130.18
2023-03-27T17:21:11.634Z,112.76
2023-03-27T17:25:11.685Z,123.73
2023-03-27T17:29:11.669Z,125.43
2023-03-27T17:33:11.559Z,131.04
2023-03-27T17:37:11.698Z,141.60
2023-03-27T17:41:11.446Z,127.68
2023-03-27T17:45:11.728Z,152.96
2023-03-27T17:49:11.686Z,172.61
2023-03-27T17:53:11.679Z,156.09
2023-03-27T17:57:11.347Z,160.98
2023-03-27T18:01:11.745Z,150.89
2023-03-27T18:05:11.395Z,158.55
2023-03-27T18:09:11.683Z,116.37
2023-03-27T18:13:11.294Z,108.18
2023-03-27T18:17:11.356Z,120.08
2023-03-27T18:21:11.675Z,135.44
2023-03-27T18:25:11.512Z,146.26
2023-03-27T18:29:11.726Z,145.25
2023-03-27T18:33:11.732Z,155.08
2023-03-27T18:37:11.577Z,146.92
2023-03-27T18:41:11.679Z,125.19
2023-03-27T18:45:11.778Z,128.02
2023-03-27T18:49:23.493Z,126.39
2023-03-27T18:53:13.203Z,134.46
2023-03-27T18:57:11.831Z,166.04
2023-03-27T19:01:12.238Z,174.36
2023-03-27T19:05:12.205Z,149.15
2023-03-27T19:09:12.194Z,85.19
2023-03-27T19:13:12.132Z,81.52
2023-03-27T19:17:12.323Z,118.29
2023-03-27T19:21:12.715Z,97.33
2023-03-27T19:25:12.706Z,134.78
2023-03-27T19:29:12.721Z,89.30
2023-03-27T19:33:12.581Z,121.75
2023-03-27T19:37:12.672Z,74.60
2023-03-27T19:41:13.231Z,16.76
2023-03-27T19:45:13.215Z,52.50
2023-03-27T19:49:15.209Z,64.72
2023-03-27T19:53:12.993Z,41.98
2023-03-27T19:57:13.049Z,18.17
2023-03-27T20:01:13.188Z,39.10
2023-03-27T20:05:12.881Z,47.09
2023-03-27T20:09:13.212Z,52.29
2023-03-27T20:13:12.823Z,59.19
2023-03-27T20:21:13.224Z,137.14
2023-03-27T20:25:13.224Z,140.57
2023-03-27T20:29:13.040Z,121.57
2023-03-27T20:33:13.712Z,108.93
2023-03-27T20:37:13.726Z,118.21
2023-03-27T20:41:13.242Z,79.07
2023-03-27T20:45:13.257Z,69.58
2023-03-27T20:49:13.118Z,45.81
2023-03-27T20:53:13.084Z,77.21
2023-03-27T20:57:13.258Z,87.34
2023-03-27T21:01:13.272Z,107.85
2023-03-27T21:05:13.208Z,129.40
2023-03-27T21:09:12.900Z,140.31
2023-03-27T21:13:13.250Z,160.59
2023-03-27T21:17:13.230Z,164.18
2023-03-27T21:21:13.237Z,159.44
2023-03-27T21:25:13.242Z,161.77
2023-03-27T21:29:13.175Z,149.21
2023-03-27T21:33:13.406Z,147.51
2023-03-27T21:37:13.789Z,158.07
2023-03-27T21:41:14.196Z,163.47
2023-03-27T21:45:14.290Z,164.32
2023-03-27T21:49:13.745Z,162.10
2023-03-27T21:53:13.736Z,155.89
2023-03-27T21:57:13.770Z,162.47
2023-03-27T22:01:13.793Z,164.82
2023-03-27T22:05:13.593Z,169.35
2023-03-27T22:09:13.571Z,164.23
2023-03-27T22:13:13.739Z,169.90
2023-03-27T22:17:13.767Z,161.66
2023-03-27T22:21:13.819Z,155.71
2023-03-27T22:25:13.488Z,158.77
2023-03-27T22:29:13.758Z,168.46
2023-03-27T22:33:13.800Z,165.42
2023-03-27T22:37:13.757Z,159.62
2023-03-27T22:41:13.800Z,149.10
2023-03-27T22:45:13.273Z,128.40
2023-03-27T22:49:13.224Z,114.70
2023-03-27T22:53:13.233Z,100.95
2023-03-27T22:57:13.302Z,126.51
2023-03-27T23:01:13.280Z,136.16
2023-03-27T23:05:13.202Z,121.30
2023-03-27T23:09:13.261Z,128.82
2023-03-27T23:13:13.756Z,146.36
2023-03-27T23:17:13.411Z,158.73
2023-03-27T23:21:13.663Z,141.70
2023-03-27T23:25:13.660Z,137.71
2023-03-27T23:29:13.767Z,154.65
2023-03-27T23:33:13.737Z,151.04
2023-03-27T23:37:14.275Z,153.94
2023-03-27T23:41:13.863Z,153.81
2023-03-27T23:45:14.363Z,113.47
2023-03-27T23:49:14.259Z,135.43
2023-03-27T23:53:14.270Z,154.55
2023-03-27T23:57:14.395Z,161.39
